createdAt,value
2023-03-26T00:01:29.248Z,8.80
2023-03-26T00:03:56.618Z,8.80
2023-03-26T00:06:26.061Z,8.80
2023-03-26T00:08:53.941Z,8.70
2023-03-26T00:11:23.051Z,8.70
2023-03-26T00:13:52.178Z,8.70
2023-03-26T00:16:20.978Z,8.70
2023-03-26T00:18:48.151Z,8.80
2023-03-26T00:21:18.720Z,8.80
2023-03-26T00:23:48.501Z,8.80
2023-03-26T00:26:16.135Z,8.80
2023-03-26T00:28:43.672Z,8.80
2023-03-26T00:31:22.038Z,8.80
2023-03-26T00:33:52.489Z,8.80
2023-03-26T00:36:20.140Z,8.80
2023-03-26T00:38:47.947Z,8.70
2023-03-26T00:41:19.039Z,8.70
2023-03-26T00:43:46.961Z,8.70
2023-03-26T00:46:14.799Z,8.70
2023-03-26T00:48:45.770Z,8.70
2023-03-26T00:51:15.514Z,8.70
2023-03-26T00:53:44.762Z,8.70
2023-03-26T00:56:17.406Z,8.70
2023-03-26T00:58:44.885Z,8.70
2023-03-26T01:01:16.309Z,8.70
2023-03-26T01:06:33.945Z,8.60
2023-03-26T01:09:11.236Z,8.60
2023-03-26T01:11:38.583Z,8.60
2023-03-26T01:14:10.876Z,8.60
2023-03-26T01:16:41.890Z,8.60
2023-03-26T01:19:18.926Z,8.60
2023-03-26T01:21:47.344Z,8.60
2023-03-26T01:24:15.862Z,8.60
2023-03-26T01:26:58.991Z,8.60
2023-03-26T01:29:35.969Z,8.60
2023-03-26T01:32:22.196Z,8.60
2023-03-26T01:35:08.299Z,8.60
2023-03-26T01:37:50.415Z,8.50
2023-03-26T01:40:28.674Z,8.50
2023-03-26T01:43:06.776Z,8.50
2023-03-26T01:45:38.216Z,8.50
2023-03-26T01:48:06.861Z,8.50
2023-03-26T01:50:34.198Z,8.50
2023-03-26T01:53:01.739Z,8.50
2023-03-26T01:55:42.068Z,8.50
2023-03-26T01:58:19.552Z,8.50
2023-03-26T02:00:54.962Z,8.50
2023-03-26T02:03:30.225Z,8.50
2023-03-26T02:06:06.240Z,8.50
2023-03-26T02:08:38.739Z,8.40
2023-03-26T02:11:16.639Z,8.40
2023-03-26T02:13:46.515Z,8.40
2023-03-26T02:16:16.989Z,8.30
2023-03-26T02:18:45.891Z,8.30
2023-03-26T02:21:16.868Z,8.20
2023-03-26T02:23:44.407Z,8.20
2023-03-26T02:26:15.740Z,8.10
2023-03-26T02:29:16.612Z,8.10
2023-03-26T02:31:44.921Z,8.10
2023-03-26T02:34:12.698Z,8.00
2023-03-26T02:36:47.145Z,8.00
2023-03-26T02:39:14.405Z,8.00
2023-03-26T02:41:46.630Z,7.90
2023-03-26T02:44:13.785Z,7.90
2023-03-26T02:46:59.258Z,7.90
2023-03-26T02:49:41.305Z,7.90
2023-03-26T02:52:12.894Z,7.90
2023-03-26T02:54:40.993Z,7.90
2023-03-26T02:57:20.973Z,7.80
2023-03-26T03:00:08.170Z,7.90
2023-03-26T03:02:38.677Z,7.80
2023-03-26T03:05:26.764Z,7.80
2023-03-26T03:08:19.335Z,7.80
2023-03-26T03:11:11.414Z,7.80
2023-03-26T03:13:45.477Z,7.80
2023-03-26T03:16:17.885Z,7.70
2023-03-26T03:18:44.952Z,7.70
2023-03-26T03:21:13.052Z,7.70
2023-03-26T03:23:39.955Z,7.60
2023-03-26T03:26:15.060Z,7.60
2023-03-26T03:28:47.107Z,7.50
2023-03-26T03:31:18.162Z,7.50
2023-03-26T03:33:45.619Z,7.50
2023-03-26T03:36:20.829Z,7.50
2023-03-26T03:38:57.206Z,7.40
2023-03-26T03:41:27.272Z,7.40
2023-03-26T03:43:55.776Z,7.40
2023-03-26T03:46:28.100Z,7.40
2023-03-26T03:48:57.079Z,7.40
2023-03-26T03:51:34.223Z,7.30
2023-03-26T03:54:31.501Z,7.30
2023-03-26T03:57:22.783Z,7.30
2023-03-26T03:59:59.207Z,7.30
2023-03-26T04:02:40.491Z,7.20
2023-03-26T04:05:10.459Z,7.20
2023-03-26T04:07:44.209Z,7.20
2023-03-26T04:10:26.934Z,7.20
2023-03-26T04:13:31.987Z,7.10
2023-03-26T04:16:35.128Z,7.10
2023-03-26T04:19:08.917Z,7.00
2023-03-26T04:21:46.116Z,7.00
2023-03-26T04:24:15.062Z,7.00
2023-03-26T04:27:16.150Z,7.00
2023-03-26T04:29:49.203Z,7.00
2023-03-26T04:32:25.385Z,7.00
2023-03-26T04:34:53.927Z,7.00
2023-03-26T04:37:28.749Z,7.00
2023-03-26T04:40:11.704Z,7.00
2023-03-26T04:42:48.714Z,7.00
2023-03-26T04:45:30.471Z,7.10
2023-03-26T04:47:59.790Z,7.10
2023-03-26T04:50:27.230Z,7.00
2023-03-26T04:52:57.292Z,7.10
2023-03-26T04:56:03.813Z,7.00
2023-03-26T04:58:51.175Z,7.00
2023-03-26T05:01:18.857Z,7.00
2023-03-26T05:03:48.420Z,7.00
2023-03-26T05:06:17.750Z,7.00
2023-03-26T05:08:45.572Z,7.00
2023-03-26T05:11:22.667Z,7.00
2023-03-26T05:13:50.581Z,7.00
2023-03-26T05:16:18.205Z,7.00
2023-03-26T05:18:52.010Z,7.00
2023-03-26T05:21:19.782Z,7.00
2023-03-26T05:23:47.068Z,7.00
2023-03-26T05:26:21.654Z,7.00
2023-03-26T05:28:49.206Z,7.00
2023-03-26T05:31:26.763Z,7.10
2023-03-26T05:34:02.639Z,7.10
2023-03-26T05:36:34.955Z,7.10
2023-03-26T05:39:26.715Z,7.10
2023-03-26T05:41:53.812Z,7.20
2023-03-26T05:44:46.502Z,7.10
2023-03-26T05:47:21.855Z,7.10
2023-03-26T05:49:50.179Z,7.10
2023-03-26T05:52:17.300Z,7.20
2023-03-26T05:55:05.407Z,7.20
2023-03-26T05:57:56.431Z,7.20
2023-03-26T06:00:42.559Z,7.30
2023-03-26T06:03:12.199Z,7.30
2023-03-26T06:05:59.828Z,7.40
2023-03-26T06:08:40.261Z,7.40
2023-03-26T06:11:07.511Z,7.40
2023-03-26T06:13:36.923Z,7.50
2023-03-26T06:16:05.008Z,7.50
2023-03-26T06:18:43.813Z,7.60
2023-03-26T06:21:33.563Z,7.50
2023-03-26T06:24:13.938Z,7.50
2023-03-26T06:26:59.703Z,7.40
2023-03-26T06:29:29.513Z,7.50
2023-03-26T06:32:16.217Z,7.50
2023-03-26T06:35:07.932Z,7.70
2023-03-26T06:37:38.048Z,7.80
2023-03-26T06:40:07.567Z,7.90
2023-03-26T06:43:08.021Z,8.00
2023-03-26T06:45:55.258Z,8.30
2023-03-26T06:48:38.477Z,8.30
2023-03-26T06:51:28.560Z,8.40
2023-03-26T06:54:10.180Z,8.40
2023-03-26T06:56:44.385Z,8.50
2023-03-26T06:59:29.972Z,8.50
2023-03-26T07:02:15.166Z,8.50
2023-03-26T07:05:00.785Z,8.60
2023-03-26T07:07:49.451Z,8.60
2023-03-26T07:10:37.011Z,8.60
2023-03-26T07:13:30.007Z,8.70
2023-03-26T07:16:15.256Z,8.70
2023-03-26T07:19:14.359Z,8.80
2023-03-26T07:21:43.561Z,8.80
2023-03-26T07:24:25.240Z,8.80
2023-03-26T07:27:31.398Z,8.80
2023-03-26T07:30:04.584Z,9.10
2023-03-26T07:32:58.714Z,9.20
2023-03-26T07:35:46.390Z,9.30
2023-03-26T07:38:43.297Z,9.30
2023-03-26T07:41:47.069Z,9.40
2023-03-26T07:44:51.229Z,9.60
2023-03-26T07:47:42.886Z,9.60
2023-03-26T07:50:30.567Z,9.60
2023-03-26T07:53:04.976Z,9.50
2023-03-26T07:55:53.002Z,9.90
2023-03-26T07:58:53.443Z,10.10
2023-03-26T08:02:03.986Z,10.30
2023-03-26T08:04:57.330Z,10.50
2023-03-26T08:08:08.056Z,10.80
2023-03-26T08:10:57.324Z,11.10
2023-03-26T08:13:34.858Z,11.60
2023-03-26T08:16:12.267Z,12.10
2023-03-26T08:18:51.833Z,12.40
2023-03-26T08:21:24.272Z,12.70
2023-03-26T08:24:02.478Z,12.50
2023-03-26T08:26:39.937Z,12.70
2023-03-26T08:29:25.373Z,12.50
2023-03-26T08:31:54.700Z,13.00
2023-03-26T08:34:23.713Z,13.80
2023-03-26T08:36:50.611Z,13.60
2023-03-26T08:39:19.297Z,13.90
2023-03-26T08:42:32.577Z,13.50
2023-03-26T08:45:31.859Z,13.30
2023-03-26T08:48:51.540Z,13.10
2023-03-26T08:51:53.000Z,12.60
2023-03-26T08:55:33.144Z,12.50
2023-03-26T08:59:14.276Z,12.50
2023-03-26T09:02:15.731Z,13.30
2023-03-26T09:05:20.035Z,14.20
2023-03-26T09:08:56.778Z,15.00
2023-03-26T09:12:00.655Z,15.70
2023-03-26T09:15:11.096Z,15.80
2023-03-26T09:18:28.627Z,15.70
2023-03-26T09:21:53.677Z,15.90
2023-03-26T09:24:57.109Z,16.80
2023-03-26T09:27:40.204Z,16.20
2023-03-26T09:30:51.389Z,15.40
2023-03-26T09:33:55.824Z,15.70
2023-03-26T09:36:57.830Z,16.70
2023-03-26T09:39:42.993Z,17.50
2023-03-26T09:42:23.671Z,17.20
2023-03-26T09:45:26.756Z,17.30
2023-03-26T09:48:45.886Z,16.50
2023-03-26T09:51:32.173Z,17.80
2023-03-26T09:54:42.656Z,17.60
2023-03-26T09:57:29.310Z,17.80
2023-03-26T10:00:26.482Z,17.70
2023-03-26T10:03:17.030Z,18.30
2023-03-26T10:06:13.859Z,18.70
2023-03-26T10:09:07.091Z,19.30
2023-03-26T10:12:04.680Z,18.80
2023-03-26T10:14:46.443Z,17.80
2023-03-26T10:17:42.998Z,17.10
2023-03-26T10:20:33.436Z,16.80
2023-03-26T10:23:41.576Z,18.80
2023-03-26T10:27:09.966Z,19.30
2023-03-26T10:30:24.623Z,18.90
2023-03-26T10:33:05.315Z,19.70
2023-03-26T10:35:48.587Z,20.20
2023-03-26T10:38:29.600Z,20.90
2023-03-26T10:41:08.739Z,21.50
2023-03-26T10:44:13.299Z,20.70
2023-03-26T10:47:05.585Z,20.40
2023-03-26T10:50:01.907Z,19.40
2023-03-26T10:52:37.635Z,18.90
2023-03-26T10:55:14.639Z,18.10
2023-03-26T10:57:48.850Z,18.80
2023-03-26T11:00:22.521Z,18.10
2023-03-26T11:03:21.878Z,17.60
2023-03-26T11:06:00.249Z,18.60
2023-03-26T11:08:39.447Z,19.20
2023-03-26T11:11:24.435Z,20.40
2023-03-26T11:14:03.544Z,21.60
2023-03-26T11:16:53.736Z,21.50
2023-03-26T11:19:32.798Z,20.60
2023-03-26T11:22:13.037Z,19.70
2023-03-26T11:25:24.017Z,18.70
2023-03-26T11:28:08.672Z,18.20
2023-03-26T11:30:46.821Z,20.30
2023-03-26T11:33:22.815Z,20.60
2023-03-26T11:35:58.077Z,20.60
2023-03-26T11:38:33.138Z,19.70
2023-03-26T11:41:04.476Z,19.00
2023-03-26T11:43:53.916Z,19.10
2023-03-26T11:46:24.941Z,18.90
2023-03-26T11:48:57.441Z,20.40
2023-03-26T11:51:31.891Z,21.30
2023-03-26T11:53:59.235Z,22.00
2023-03-26T11:56:33.466Z,22.00
2023-03-26T11:59:04.720Z,21.90
2023-03-26T12:01:46.985Z,22.70
2023-03-26T12:04:15.335Z,23.10
2023-03-26T12:06:53.763Z,22.60
2023-03-26T12:09:20.877Z,21.50
2023-03-26T12:11:53.630Z,20.80
2023-03-26T12:14:25.365Z,21.20
2023-03-26T12:17:03.143Z,20.50
2023-03-26T12:19:38.794Z,19.60
2023-03-26T12:22:29.757Z,18.90
2023-03-26T12:25:16.834Z,18.90
2023-03-26T12:27:47.257Z,19.70
2023-03-26T12:30:21.494Z,21.00
2023-03-26T12:32:53.336Z,21.60
2023-03-26T12:35:25.987Z,21.40
2023-03-26T12:37:56.478Z,20.50
2023-03-26T12:40:31.156Z,20.10
2023-03-26T12:44:47.005Z,19.20
2023-03-26T12:47:53.995Z,20.60
2023-03-26T12:48:41.483Z,21.10
2023-03-26T12:51:19.534Z,21.60
2023-03-26T12:54:29.244Z,22.10
2023-03-26T12:57:18.476Z,22.80
2023-03-26T13:00:02.082Z,23.20
2023-03-26T13:03:06.639Z,23.70
2023-03-26T13:06:07.341Z,23.60
2023-03-26T13:09:00.360Z,23.70
2023-03-26T13:11:42.744Z,23.70
2023-03-26T13:14:45.639Z,24.00
2023-03-26T13:17:26.037Z,24.00
2023-03-26T13:20:04.698Z,23.70
2023-03-26T13:22:43.294Z,23.60
2023-03-26T13:25:29.961Z,23.70
2023-03-26T13:28:17.955Z,23.90
2023-03-26T13:30:57.211Z,24.00
2023-03-26T13:33:39.865Z,23.30
2023-03-26T13:36:23.760Z,23.20
2023-03-26T13:42:27.511Z,23.20
2023-03-26T13:45:11.661Z,23.50
2023-03-26T13:47:46.155Z,23.60
2023-03-26T13:50:23.994Z,23.40
2023-03-26T13:52:58.577Z,23.30
2023-03-26T13:55:32.225Z,23.40
2023-03-26T13:58:12.281Z,23.60
2023-03-26T14:00:57.348Z,23.60
2023-03-26T14:03:33.175Z,23.60
2023-03-26T14:06:11.034Z,23.40
2023-03-26T14:08:43.309Z,23.30
2023-03-26T14:11:16.777Z,23.40
2023-03-26T14:13:52.561Z,23.40
2023-03-26T14:16:26.550Z,23.40
2023-03-26T14:19:04.147Z,23.00
2023-03-26T14:22:02.611Z,21.40
2023-03-26T14:24:57.481Z,21.30
2023-03-26T14:27:44.995Z,21.70
2023-03-26T14:30:47.116Z,20.90
2023-03-26T14:33:42.932Z,20.00
2023-03-26T14:36:34.301Z,20.00
2023-03-26T14:39:28.747Z,20.20
2023-03-26T14:42:03.019Z,20.10
2023-03-26T14:45:38.428Z,19.20
2023-03-26T14:48:47.810Z,18.60
2023-03-26T14:51:34.400Z,18.10
2023-03-26T14:54:08.647Z,18.60
2023-03-26T14:57:35.214Z,19.00
2023-03-26T15:00:49.609Z,19.30
2023-03-26T15:07:06.139Z,19.40
2023-03-26T15:10:11.340Z,18.40
2023-03-26T15:13:00.552Z,18.20
2023-03-26T15:16:26.163Z,18.00
2023-03-26T15:19:33.565Z,18.40
2023-03-26T15:22:54.107Z,17.80
2023-03-26T15:26:06.283Z,17.30
2023-03-26T15:29:03.562Z,17.60
2023-03-26T15:31:54.418Z,17.90
2023-03-26T15:35:11.010Z,18.20
2023-03-26T15:38:43.736Z,18.40
2023-03-26T15:41:21.634Z,18.60
2023-03-26T15:44:24.355Z,18.70
2023-03-26T15:47:03.131Z,18.80
2023-03-26T15:49:40.604Z,18.90
2023-03-26T15:52:23.889Z,18.80
2023-03-26T15:55:03.364Z,18.30
2023-03-26T15:57:37.255Z,17.90
2023-03-26T16:00:21.520Z,17.80
2023-03-26T16:03:14.288Z,17.90
2023-03-26T16:06:27.843Z,17.80
2023-03-26T16:09:25.793Z,17.50
2023-03-26T16:11:57.657Z,17.60
2023-03-26T16:14:43.449Z,17.60
2023-03-26T16:17:16.332Z,17.60
2023-03-26T16:19:58.856Z,17.40
2023-03-26T16:22:44.615Z,17.20
2023-03-26T16:25:29.102Z,17.00
2023-03-26T16:28:28.507Z,16.60
2023-03-26T16:31:36.769Z,16.20
2023-03-26T16:34:26.492Z,16.00
2023-03-26T16:36:54.198Z,15.70
2023-03-26T16:39:37.575Z,15.50
2023-03-26T16:42:33.099Z,15.30
2023-03-26T16:45:19.304Z,15.20
2023-03-26T16:47:58.990Z,15.00
2023-03-26T16:50:41.989Z,14.90
2023-03-26T16:53:25.140Z,14.70
2023-03-26T16:56:02.846Z,14.60
2023-03-26T16:58:37.141Z,14.40
2023-03-26T17:01:11.906Z,14.20
2023-03-26T17:03:55.452Z,14.10
2023-03-26T17:06:54.334Z,13.90
2023-03-26T17:09:32.198Z,13.70
2023-03-26T17:12:09.062Z,13.50
2023-03-26T17:14:54.513Z,13.40
2023-03-26T17:17:42.582Z,13.20
2023-03-26T17:20:27.510Z,13.10
2023-03-26T17:23:11.105Z,13.00
2023-03-26T17:25:55.247Z,12.80
2023-03-26T17:28:57.517Z,12.70
2023-03-26T17:31:37.181Z,12.50
2023-03-26T17:34:57.860Z,12.40
2023-03-26T17:37:46.851Z,12.20
2023-03-26T17:40:49.211Z,12.20
2023-03-26T17:43:44.284Z,12.00
2023-03-26T17:46:33.341Z,11.90
2023-03-26T17:49:08.237Z,11.80
2023-03-26T17:51:51.304Z,11.70
2023-03-26T17:54:26.912Z,11.70
2023-03-26T17:56:59.771Z,11.60
2023-03-26T17:59:28.595Z,11.60
2023-03-26T18:01:59.487Z,11.50
2023-03-26T18:04:33.880Z,11.50
2023-03-26T18:07:42.533Z,11.40
2023-03-26T18:10:29.702Z,11.30
2023-03-26T18:13:19.962Z,11.20
2023-03-26T18:16:00.820Z,11.20
2023-03-26T18:18:34.479Z,11.10
2023-03-26T18:21:06.205Z,11.10
2023-03-26T18:23:40.597Z,11.00
2023-03-26T18:26:15.469Z,11.00
2023-03-26T18:28:45.520Z,10.90
2023-03-26T18:31:19.212Z,10.90
2023-03-26T18:33:49.224Z,10.80
2023-03-26T18:36:18.276Z,10.80
2023-03-26T18:38:47.410Z,10.80
2023-03-26T18:41:25.349Z,10.80
2023-03-26T18:43:52.302Z,10.70
2023-03-26T18:46:19.985Z,10.70
2023-03-26T18:48:47.381Z,10.70
2023-03-26T18:51:14.456Z,10.60
2023-03-26T18:53:50.828Z,10.60
2023-03-26T18:56:29.901Z,10.60
2023-03-26T18:58:59.686Z,10.50
2023-03-26T19:01:29.427Z,10.50
2023-03-26T19:03:59.023Z,10.40
2023-03-26T19:06:26.607Z,10.30
2023-03-26T19:08:57.234Z,10.20
2023-03-26T19:11:25.772Z,10.20
2023-03-26T19:14:05.780Z,10.10
2023-03-26T19:16:35.028Z,10.10
2023-03-26T19:19:06.632Z,10.00
2023-03-26T19:21:36.106Z,10.00
2023-03-26T19:24:05.454Z,9.90
2023-03-26T19:26:32.963Z,9.90
2023-03-26T19:29:00.420Z,9.90
2023-03-26T19:31:34.467Z,9.80
2023-03-26T19:34:13.329Z,9.80
2023-03-26T19:36:52.595Z,9.70
2023-03-26T19:39:34.722Z,9.70
2023-03-26T19:42:10.983Z,9.50
2023-03-26T19:45:10.840Z,9.40
2023-03-26T19:50:21.769Z,9.30
2023-03-26T19:53:15.480Z,9.20
2023-03-26T19:55:56.428Z,9.10
2023-03-26T19:58:24.966Z,9.00
2023-03-26T20:00:52.387Z,8.90
2023-03-26T20:03:28.157Z,8.80
2023-03-26T20:05:55.583Z,8.60
2023-03-26T20:08:22.717Z,8.50
2023-03-26T20:10:49.671Z,8.40
2023-03-26T20:13:18.316Z,8.30
2023-03-26T20:16:05.392Z,8.20
2023-03-26T20:18:34.793Z,8.10
2023-03-26T20:21:01.777Z,8.00
2023-03-26T20:23:29.278Z,7.90
2023-03-26T20:25:56.623Z,7.90
2023-03-26T20:28:25.040Z,7.90
2023-03-26T20:30:52.019Z,7.80
2023-03-26T20:33:21.889Z,7.80
2023-03-26T20:35:48.878Z,7.70
2023-03-26T20:38:16.073Z,7.60
2023-03-26T20:40:44.138Z,7.50
2023-03-26T20:43:14.023Z,7.50
2023-03-26T20:45:42.612Z,7.40
2023-03-26T20:48:10.031Z,7.30
2023-03-26T20:50:49.982Z,7.20
2023-03-26T20:53:18.234Z,7.10
2023-03-26T20:55:47.440Z,7.00
2023-03-26T20:58:16.892Z,7.00
2023-03-26T21:00:45.330Z,7.00
2023-03-26T21:03:15.060Z,6.90
2023-03-26T21:05:43.311Z,6.90
2023-03-26T21:08:16.698Z,6.80
2023-03-26T21:10:45.924Z,6.70
2023-03-26T21:13:25.486Z,6.70
2023-03-26T21:16:01.408Z,6.60
2023-03-26T21:18:29.102Z,6.60
2023-03-26T21:21:18.148Z,6.50
2023-03-26T21:23:57.453Z,6.50
2023-03-26T21:26:33.419Z,6.40
2023-03-26T21:29:01.354Z,6.30
2023-03-26T21:31:31.076Z,6.30
2023-03-26T21:33:58.956Z,6.20
2023-03-26T21:36:27.018Z,6.20
2023-03-26T21:38:58.159Z,6.10
2023-03-26T21:41:35.298Z,6.10
2023-03-26T21:44:02.609Z,6.00
2023-03-26T21:46:33.226Z,6.00
2023-03-26T21:49:00.892Z,5.90
2023-03-26T21:51:30.100Z,5.90
2023-03-26T21:53:57.983Z,5.90
2023-03-26T21:56:45.482Z,5.90
2023-03-26T21:59:23.793Z,5.90
2023-03-26T22:02:05.712Z,5.80
2023-03-26T22:04:41.498Z,5.70
2023-03-26T22:07:13.747Z,5.60
2023-03-26T22:09:41.143Z,5.50
2023-03-26T22:12:08.003Z,5.50
2023-03-26T22:14:35.426Z,5.50
2023-03-26T22:17:04.685Z,5.40
2023-03-26T22:19:32.078Z,5.40
2023-03-26T22:21:59.673Z,5.30
2023-03-26T22:24:26.878Z,5.30
2023-03-26T22:26:54.085Z,5.30
2023-03-26T22:29:21.266Z,5.30
2023-03-26T22:31:48.418Z,5.30
2023-03-26T22:34:16.823Z,5.20
2023-03-26T22:36:43.828Z,5.20
2023-03-26T22:39:10.876Z,5.10
2023-03-26T22:41:38.011Z,5.10
2023-03-26T22:44:16.661Z,5.00
2023-03-26T22:46:46.874Z,5.00
2023-03-26T22:49:13.743Z,5.00
2023-03-26T22:51:42.247Z,4.90
2023-03-26T22:54:09.285Z,4.90
2023-03-26T22:56:36.530Z,4.90
2023-03-26T22:59:03.621Z,4.90
2023-03-26T23:01:31.074Z,4.80
2023-03-26T23:03:58.164Z,4.80
2023-03-26T23:06:25.327Z,4.70
2023-03-26T23:08:53.857Z,4.70
2023-03-26T23:11:21.912Z,4.70
2023-03-26T23:13:49.565Z,4.70
2023-03-26T23:16:17.660Z,4.60
2023-03-26T23:18:45.063Z,4.60
2023-03-26T23:21:14.399Z,4.60
2023-03-26T23:23:41.796Z,4.60
2023-03-26T23:26:10.743Z,4.50
2023-03-26T23:28:38.404Z,4.50
2023-03-26T23:31:09.469Z,4.40
2023-03-26T23:33:39.580Z,4.40
2023-03-26T23:36:08.632Z,4.40
2023-03-26T23:38:43.604Z,4.30
2023-03-26T23:41:13.932Z,4.30
2023-03-26T23:43:53.784Z,4.30
2023-03-26T23:46:24.694Z,4.30
2023-03-26T23:48:52.614Z,4.30
2023-03-26T23:51:20.702Z,4.30
2023-03-26T23:53:49.325Z,4.20
2023-03-26T23:56:17.987Z,4.20
2023-03-26T23:58:45.149Z,4.10
